createdAt,value
2018-12-15T00:02:10.421Z,2.40
2018-12-15T00:04:37.912Z,2.40
2018-12-15T00:07:05.467Z,2.40
2018-12-15T00:09:32.976Z,2.40
2018-12-15T00:12:00.563Z,2.40
2018-12-15T00:14:28.194Z,2.40
2018-12-15T00:16:55.869Z,2.30
2018-12-15T00:19:23.420Z,2.30
2018-12-15T00:21:50.957Z,2.30
2018-12-15T00:24:18.386Z,2.30
2018-12-15T00:26:45.885Z,2.40
2018-12-15T00:29:13.330Z,2.40
2018-12-15T00:31:40.885Z,2.40
2018-12-15T00:34:08.487Z,2.40
2018-12-15T00:36:36.022Z,2.50
2018-12-15T00:39:05.431Z,2.40
2018-12-15T00:41:32.905Z,2.40
2018-12-15T00:44:00.401Z,2.40
2018-12-15T00:46:27.855Z,2.40
2018-12-15T00:48:55.421Z,2.30
2018-12-15T00:51:22.879Z,2.30
2018-12-15T00:53:50.378Z,2.40
2018-12-15T00:56:17.885Z,2.30
2018-12-15T00:58:45.442Z,2.30
2018-12-15T01:01:12.994Z,2.40
2018-12-15T01:03:40.491Z,2.30
2018-12-15T01:06:08.170Z,2.40
2018-12-15T01:08:35.678Z,2.30
2018-12-15T01:11:03.155Z,2.30
2018-12-15T01:13:30.689Z,2.40
2018-12-15T01:15:58.163Z,2.30
2018-12-15T01:18:25.648Z,2.30
2018-12-15T01:20:53.218Z,2.30
2018-12-15T01:23:20.730Z,2.30
2018-12-15T01:25:48.209Z,2.30
2018-12-15T01:28:15.681Z,2.20
2018-12-15T01:30:43.151Z,2.20
2018-12-15T01:33:10.642Z,2.20
2018-12-15T01:35:38.210Z,2.30
2018-12-15T01:38:05.675Z,2.30
2018-12-15T01:40:33.186Z,2.30
2018-12-15T01:43:00.680Z,2.30
2018-12-15T01:45:28.146Z,2.30
2018-12-15T01:47:55.688Z,2.30
2018-12-15T01:50:23.302Z,2.20
2018-12-15T01:52:50.775Z,2.20
2018-12-15T01:55:18.250Z,2.20
2018-12-15T01:57:45.701Z,2.30
2018-12-15T02:00:13.453Z,2.30
2018-12-15T02:02:40.913Z,2.20
2018-12-15T02:05:08.361Z,2.20
2018-12-15T02:07:35.832Z,2.20
2018-12-15T02:10:04.534Z,2.30
2018-12-15T02:12:32.080Z,2.20
2018-12-15T02:14:59.518Z,2.20
2018-12-15T02:17:33.434Z,2.20
2018-12-15T02:19:56.471Z,2.20
2018-12-15T02:22:23.922Z,2.20
2018-12-15T02:24:51.373Z,2.20
2018-12-15T02:27:18.838Z,2.20
2018-12-15T02:29:46.290Z,2.20
2018-12-15T02:32:13.762Z,2.20
2018-12-15T02:34:41.206Z,2.30
2018-12-15T02:37:08.665Z,2.20
2018-12-15T02:39:36.116Z,2.20
2018-12-15T02:42:03.590Z,2.20
2018-12-15T02:44:31.037Z,2.20
2018-12-15T02:46:58.507Z,2.20
2018-12-15T02:49:25.957Z,2.20
2018-12-15T02:51:53.427Z,2.30
2018-12-15T02:54:20.951Z,2.20
2018-12-15T02:56:48.503Z,2.20
2018-12-15T02:59:15.962Z,2.30
2018-12-15T03:01:43.414Z,2.20
2018-12-15T03:04:10.891Z,2.20
2018-12-15T03:06:38.351Z,2.20
2018-12-15T03:09:06.091Z,2.10
2018-12-15T03:11:33.535Z,2.20
2018-12-15T03:14:01.014Z,2.20
2018-12-15T03:16:28.455Z,2.20
2018-12-15T03:18:55.943Z,2.10
2018-12-15T03:21:23.387Z,2.20
2018-12-15T03:23:50.854Z,2.20
2018-12-15T03:26:18.292Z,2.20
2018-12-15T03:28:45.758Z,2.10
2018-12-15T03:31:13.215Z,2.10
2018-12-15T03:33:40.678Z,2.10
2018-12-15T03:36:08.130Z,2.10
2018-12-15T03:38:35.604Z,2.10
2018-12-15T03:41:03.082Z,2.00
2018-12-15T03:43:30.526Z,2.10
2018-12-15T03:45:57.994Z,2.10
2018-12-15T03:48:25.449Z,2.00
2018-12-15T03:50:52.922Z,2.00
2018-12-15T03:53:20.365Z,2.10
2018-12-15T03:55:47.835Z,2.10
2018-12-15T03:58:15.293Z,2.00
2018-12-15T04:00:42.872Z,2.00
2018-12-15T04:03:10.312Z,2.00
2018-12-15T04:05:37.823Z,2.00
2018-12-15T04:08:05.334Z,2.00
2018-12-15T04:10:32.825Z,1.90
2018-12-15T04:13:00.264Z,2.00
2018-12-15T04:15:27.708Z,2.00
2018-12-15T04:17:55.182Z,2.00
2018-12-15T04:20:22.656Z,2.00
2018-12-15T04:22:50.203Z,2.00
2018-12-15T04:25:17.647Z,2.00
2018-12-15T04:27:45.125Z,2.00
2018-12-15T04:30:12.581Z,1.90
2018-12-15T04:32:45.087Z,1.90
2018-12-15T04:35:09.513Z,1.90
2018-12-15T04:37:37.005Z,2.00
2018-12-15T04:40:05.778Z,2.00
2018-12-15T04:42:33.253Z,1.90
2018-12-15T04:45:00.713Z,1.90
2018-12-15T04:47:28.358Z,1.90
2018-12-15T04:49:55.844Z,1.90
2018-12-15T04:52:23.313Z,1.90
2018-12-15T04:54:50.778Z,1.90
2018-12-15T04:57:18.250Z,2.00
2018-12-15T04:59:45.711Z,1.90
2018-12-15T05:02:13.158Z,2.00
2018-12-15T05:04:40.630Z,2.00
2018-12-15T05:07:08.071Z,2.00
2018-12-15T05:09:35.553Z,2.00
2018-12-15T05:12:03.002Z,2.00
2018-12-15T05:14:30.454Z,2.00
2018-12-15T05:16:57.898Z,1.90
2018-12-15T05:19:25.358Z,2.00
2018-12-15T05:21:52.810Z,1.90
2018-12-15T05:24:20.471Z,2.00
2018-12-15T05:26:48.038Z,2.00
2018-12-15T05:29:15.530Z,1.90
2018-12-15T05:31:43.011Z,1.90
2018-12-15T05:34:10.467Z,1.90
2018-12-15T05:36:37.915Z,1.90
2018-12-15T05:39:05.921Z,1.90
2018-12-15T05:41:33.355Z,1.90
2018-12-15T05:44:00.836Z,1.90
2018-12-15T05:46:28.280Z,1.90
2018-12-15T05:48:55.733Z,1.90
2018-12-15T05:51:23.202Z,1.90
2018-12-15T05:53:50.650Z,1.90
2018-12-15T05:56:18.124Z,1.90
2018-12-15T05:58:45.558Z,1.90
2018-12-15T06:01:13.042Z,2.00
2018-12-15T06:03:40.494Z,2.00
2018-12-15T06:06:07.962Z,1.90
2018-12-15T06:08:35.404Z,1.90
2018-12-15T06:11:02.880Z,1.90
2018-12-15T06:13:30.330Z,2.00
2018-12-15T06:15:57.798Z,1.90
2018-12-15T06:18:31.440Z,1.90
2018-12-15T06:20:54.700Z,1.90
2018-12-15T06:23:22.213Z,1.90
2018-12-15T06:25:49.689Z,1.90
2018-12-15T06:28:17.259Z,1.90
2018-12-15T06:30:44.815Z,1.90
2018-12-15T06:33:12.372Z,1.90
2018-12-15T06:35:39.814Z,2.00
2018-12-15T06:38:07.294Z,2.00
2018-12-15T06:40:34.737Z,1.90
2018-12-15T06:43:02.275Z,2.00
2018-12-15T06:45:29.750Z,2.00
2018-12-15T06:47:57.234Z,2.00
2018-12-15T06:50:24.775Z,2.00
2018-12-15T06:52:52.247Z,2.00
2018-12-15T06:55:19.703Z,2.00
2018-12-15T06:57:47.178Z,2.00
2018-12-15T07:00:14.639Z,1.90
2018-12-15T07:02:42.107Z,1.90
2018-12-15T07:05:09.630Z,1.90
2018-12-15T07:07:37.195Z,1.90
2018-12-15T07:10:05.102Z,1.90
2018-12-15T07:12:32.579Z,1.90
2018-12-15T07:15:00.031Z,1.90
2018-12-15T07:17:27.532Z,1.90
2018-12-15T07:19:55.000Z,2.00
2018-12-15T07:22:22.459Z,2.00
2018-12-15T07:24:49.938Z,1.90
2018-12-15T07:27:17.391Z,1.90
2018-12-15T07:29:44.872Z,1.90
2018-12-15T07:32:12.331Z,1.90
2018-12-15T07:34:39.814Z,2.00
2018-12-15T07:37:07.254Z,2.00
2018-12-15T07:39:34.742Z,2.00
2018-12-15T07:42:02.206Z,2.00
2018-12-15T07:44:29.690Z,2.00
2018-12-15T07:46:57.150Z,2.00
2018-12-15T07:49:24.633Z,2.00
2018-12-15T07:51:52.075Z,2.00
2018-12-15T07:54:19.551Z,2.00
2018-12-15T07:56:46.993Z,2.00
2018-12-15T07:59:14.467Z,2.00
2018-12-15T08:01:41.935Z,2.00
2018-12-15T08:04:09.378Z,2.00
2018-12-15T08:06:36.855Z,2.00
2018-12-15T08:09:05.854Z,2.00
2018-12-15T08:11:38.874Z,2.00
2018-12-15T08:14:08.297Z,2.10
2018-12-15T08:16:35.795Z,2.10
2018-12-15T08:19:03.342Z,2.10
2018-12-15T08:21:30.814Z,2.10
2018-12-15T08:23:58.291Z,2.10
2018-12-15T08:26:25.855Z,2.20
2018-12-15T08:28:53.306Z,2.20
2018-12-15T08:31:20.770Z,2.20
2018-12-15T08:33:48.217Z,2.30
2018-12-15T08:36:15.690Z,2.30
2018-12-15T08:38:43.355Z,2.30
2018-12-15T08:41:10.866Z,2.30
2018-12-15T08:43:38.335Z,2.30
2018-12-15T08:46:08.457Z,2.30
2018-12-15T08:48:35.900Z,2.30
2018-12-15T08:51:04.095Z,2.40
2018-12-15T08:53:31.570Z,2.40
2018-12-15T08:55:59.055Z,2.40
2018-12-15T08:58:27.502Z,2.40
2018-12-15T09:00:54.976Z,2.40
2018-12-15T09:03:23.030Z,2.50
2018-12-15T09:05:50.539Z,2.50
2018-12-15T09:08:18.011Z,2.50
2018-12-15T09:10:45.471Z,2.40
2018-12-15T09:13:13.854Z,2.50
2018-12-15T09:15:41.315Z,2.50
2018-12-15T09:18:09.777Z,2.50
2018-12-15T09:20:37.369Z,2.40
2018-12-15T09:23:04.841Z,2.50
2018-12-15T09:25:32.299Z,2.50
2018-12-15T09:27:59.778Z,2.50
2018-12-15T09:30:27.244Z,2.50
2018-12-15T09:32:54.708Z,2.50
2018-12-15T09:35:22.163Z,2.60
2018-12-15T09:37:49.694Z,2.60
2018-12-15T09:40:17.163Z,2.60
2018-12-15T09:42:44.663Z,2.60
2018-12-15T09:45:12.251Z,2.60
2018-12-15T09:47:39.744Z,2.60
2018-12-15T09:50:07.284Z,2.60
2018-12-15T09:52:34.799Z,2.60
2018-12-15T09:55:02.274Z,2.60
2018-12-15T09:57:29.743Z,2.60
2018-12-15T09:59:57.209Z,2.60
2018-12-15T10:02:24.675Z,2.50
2018-12-15T10:04:52.173Z,2.60
2018-12-15T10:07:19.623Z,2.60
2018-12-15T10:09:47.106Z,2.60
2018-12-15T10:12:14.576Z,2.60
2018-12-15T10:14:42.124Z,2.50
2018-12-15T10:17:09.574Z,2.60
2018-12-15T10:19:37.128Z,2.60
2018-12-15T10:22:04.629Z,2.70
2018-12-15T10:24:32.099Z,2.70
2018-12-15T10:26:59.558Z,2.70
2018-12-15T10:35:37.028Z,2.60
2018-12-15T10:38:04.515Z,2.60
2018-12-15T10:40:32.021Z,2.60
2018-12-15T10:42:59.506Z,2.60
2018-12-15T10:45:26.987Z,2.70
2018-12-15T10:47:54.456Z,2.70
2018-12-15T10:50:21.949Z,2.60
2018-12-15T10:52:49.448Z,2.60
2018-12-15T10:55:16.931Z,2.60
2018-12-15T10:57:44.382Z,2.60
2018-12-15T11:00:14.145Z,2.60
2018-12-15T11:02:41.636Z,2.70
2018-12-15T11:05:09.195Z,2.80
2018-12-15T11:07:36.688Z,2.80
2018-12-15T11:10:04.514Z,2.80
2018-12-15T11:12:31.997Z,2.80
2018-12-15T11:14:59.456Z,2.90
2018-12-15T11:17:26.935Z,2.90
2018-12-15T11:19:54.403Z,2.80
2018-12-15T11:22:22.754Z,2.90
2018-12-15T11:24:50.233Z,2.90
2018-12-15T11:27:17.990Z,3.00
2018-12-15T11:29:46.066Z,3.10
2018-12-15T11:32:15.499Z,3.00
2018-12-15T11:34:42.986Z,3.00
2018-12-15T11:37:11.886Z,3.00
2018-12-15T11:39:39.322Z,3.10
2018-12-15T11:42:06.772Z,3.10
2018-12-15T11:44:34.903Z,3.10
2018-12-15T11:47:02.364Z,3.20
2018-12-15T11:49:29.837Z,3.20
2018-12-15T11:51:57.279Z,3.10
2018-12-15T11:54:24.782Z,3.20
2018-12-15T11:56:52.224Z,3.20
2018-12-15T11:59:19.711Z,3.20
2018-12-15T12:01:47.186Z,3.20
2018-12-15T12:04:14.643Z,3.30
2018-12-15T12:06:42.119Z,3.20
2018-12-15T12:09:09.632Z,3.30
2018-12-15T12:11:37.098Z,3.40
2018-12-15T12:14:04.616Z,3.40
2018-12-15T12:16:32.071Z,3.40
2018-12-15T12:18:59.589Z,3.40
2018-12-15T12:21:27.023Z,3.40
2018-12-15T12:23:54.560Z,3.40
2018-12-15T12:26:22.059Z,3.50
2018-12-15T12:28:49.510Z,3.50
2018-12-15T12:31:16.983Z,3.50
2018-12-15T12:33:44.490Z,3.40
2018-12-15T12:36:11.951Z,3.40
2018-12-15T12:38:39.402Z,3.30
2018-12-15T12:41:06.902Z,3.30
2018-12-15T12:43:34.334Z,3.30
2018-12-15T12:46:01.813Z,3.30
2018-12-15T12:48:29.278Z,3.20
2018-12-15T12:50:56.754Z,3.10
2018-12-15T12:53:24.478Z,3.10
2018-12-15T12:55:51.955Z,3.10
2018-12-15T12:58:19.439Z,3.10
2018-12-15T13:00:46.898Z,3.10
2018-12-15T13:03:14.598Z,3.30
2018-12-15T13:05:42.108Z,3.20
2018-12-15T13:08:09.898Z,3.20
2018-12-15T13:10:37.421Z,3.20
2018-12-15T13:13:04.980Z,3.20
2018-12-15T13:15:32.441Z,3.20
2018-12-15T13:17:59.956Z,3.10
2018-12-15T13:20:27.410Z,3.20
2018-12-15T13:22:54.999Z,3.10
2018-12-15T13:25:22.519Z,3.20
2018-12-15T13:27:49.991Z,3.20
2018-12-15T13:30:17.446Z,3.20
2018-12-15T13:32:44.924Z,3.20
2018-12-15T13:35:12.368Z,3.20
2018-12-15T13:37:39.865Z,3.20
2018-12-15T13:40:07.712Z,3.10
2018-12-15T13:42:35.187Z,3.10
2018-12-15T13:45:02.843Z,3.10
2018-12-15T13:47:30.303Z,3.20
2018-12-15T13:49:57.946Z,3.10
2018-12-15T13:52:25.501Z,3.10
2018-12-15T13:54:52.975Z,3.10
2018-12-15T13:57:20.448Z,3.10
2018-12-15T13:59:47.918Z,3.00
2018-12-15T14:02:15.395Z,3.00
2018-12-15T14:04:42.880Z,3.00
2018-12-15T14:07:10.346Z,3.00
2018-12-15T14:09:37.786Z,4.00
2018-12-15T14:12:05.238Z,2.90
2018-12-15T14:14:32.859Z,3.00
2018-12-15T14:17:00.362Z,2.90
2018-12-15T14:19:27.926Z,3.00
2018-12-15T14:21:55.443Z,3.00
2018-12-15T14:24:22.921Z,3.00
2018-12-15T14:26:50.409Z,2.90
2018-12-15T14:29:17.857Z,2.90
2018-12-15T14:31:45.330Z,2.90
2018-12-15T14:34:12.777Z,2.90
2018-12-15T14:36:40.250Z,2.90
2018-12-15T14:39:07.702Z,2.90
2018-12-15T14:41:35.190Z,2.80
2018-12-15T14:44:02.704Z,2.80
2018-12-15T14:46:30.185Z,2.80
2018-12-15T14:48:57.647Z,2.70
2018-12-15T14:51:25.135Z,2.60
2018-12-15T14:53:52.596Z,2.60
2018-12-15T14:56:20.080Z,2.60
2018-12-15T14:58:47.616Z,2.50
2018-12-15T15:01:15.110Z,2.50
2018-12-15T15:03:42.646Z,2.50
2018-12-15T15:06:10.110Z,2.50
2018-12-15T15:08:37.579Z,2.40
2018-12-15T15:11:05.047Z,2.40
2018-12-15T15:13:34.719Z,2.40
2018-12-15T15:16:02.062Z,2.40
2018-12-15T15:18:29.575Z,2.40
2018-12-15T15:20:57.033Z,2.30
2018-12-15T15:23:24.529Z,2.30
2018-12-15T15:25:51.986Z,2.20
2018-12-15T15:28:19.522Z,2.20
2018-12-15T15:30:46.998Z,2.10
2018-12-15T15:33:15.159Z,2.10
2018-12-15T15:35:42.613Z,2.00
2018-12-15T15:38:10.083Z,2.00
2018-12-15T15:40:37.666Z,2.00
2018-12-15T15:43:05.143Z,1.90
2018-12-15T15:45:32.595Z,1.90
2018-12-15T15:48:00.052Z,1.90
2018-12-15T15:50:27.543Z,1.80
2018-12-15T15:52:55.018Z,1.80
2018-12-15T15:55:22.507Z,1.80
2018-12-15T15:57:49.990Z,1.80
2018-12-15T16:00:17.476Z,1.80
2018-12-15T16:02:44.945Z,1.80
2018-12-15T16:05:12.420Z,1.80
2018-12-15T16:07:39.891Z,1.70
2018-12-15T16:10:09.002Z,1.70
2018-12-15T16:12:36.467Z,1.60
2018-12-15T16:15:05.303Z,1.60
2018-12-15T16:17:32.769Z,1.60
2018-12-15T16:20:00.239Z,1.60
2018-12-15T16:22:27.726Z,1.60
2018-12-15T16:24:55.251Z,1.60
2018-12-15T16:27:22.716Z,1.60
2018-12-15T16:29:50.185Z,1.60
2018-12-15T16:32:17.671Z,1.50
2018-12-15T16:34:45.179Z,1.60
2018-12-15T16:37:12.628Z,1.60
2018-12-15T16:39:40.076Z,1.60
2018-12-15T16:42:07.543Z,1.60
2018-12-15T16:44:35.015Z,1.60
2018-12-15T16:47:02.508Z,1.60
2018-12-15T16:49:29.958Z,1.60
2018-12-15T16:51:57.458Z,1.60
2018-12-15T16:54:24.914Z,1.50
2018-12-15T16:56:52.392Z,1.50
2018-12-15T16:59:20.547Z,1.50
2018-12-15T17:01:48.126Z,1.50
2018-12-15T17:04:15.578Z,1.50
2018-12-15T17:06:43.040Z,1.50
2018-12-15T17:09:10.533Z,1.60
2018-12-15T17:11:38.015Z,1.60
2018-12-15T17:14:05.642Z,1.60
2018-12-15T17:16:33.182Z,1.60
2018-12-15T17:19:01.117Z,1.60
2018-12-15T17:21:28.798Z,1.60
2018-12-15T17:23:56.262Z,1.50
2018-12-15T17:26:23.742Z,1.50
2018-12-15T17:28:51.198Z,1.50
2018-12-15T17:31:18.712Z,1.50
2018-12-15T17:33:46.216Z,1.40
2018-12-15T17:36:13.666Z,1.40
2018-12-15T17:38:41.239Z,1.40
2018-12-15T17:41:08.708Z,1.40
2018-12-15T17:43:36.171Z,1.40
2018-12-15T17:46:03.651Z,1.40
2018-12-15T17:48:31.144Z,1.30
2018-12-15T17:51:03.258Z,1.30
2018-12-15T17:53:28.071Z,1.30
2018-12-15T17:55:55.554Z,1.30
2018-12-15T17:58:23.049Z,1.30
2018-12-15T18:00:50.499Z,1.20
2018-12-15T18:03:17.994Z,1.20
2018-12-15T18:05:45.471Z,1.20
2018-12-15T18:08:12.940Z,1.10
2018-12-15T18:10:40.403Z,1.10
2018-12-15T18:13:07.901Z,1.20
2018-12-15T18:15:35.360Z,1.20
2018-12-15T18:18:02.887Z,1.10
2018-12-15T18:20:30.340Z,1.10
2018-12-15T18:22:57.795Z,1.00
2018-12-15T18:25:25.267Z,1.00
2018-12-15T18:27:52.740Z,1.00
2018-12-15T18:30:20.218Z,0.90
2018-12-15T18:32:47.865Z,1.00
2018-12-15T18:35:15.358Z,0.90
2018-12-15T18:37:42.819Z,0.90
2018-12-15T18:40:11.090Z,0.90
2018-12-15T18:42:38.654Z,0.90
2018-12-15T18:45:06.421Z,0.90
2018-12-15T18:47:33.879Z,0.90
2018-12-15T18:50:02.228Z,0.80
2018-12-15T18:52:29.695Z,0.80
2018-12-15T18:54:57.168Z,0.80
2018-12-15T18:57:24.654Z,0.80
2018-12-15T18:59:52.143Z,0.80
2018-12-15T19:02:19.618Z,0.80
2018-12-15T19:04:47.078Z,0.80
2018-12-15T19:07:14.574Z,0.80
2018-12-15T19:09:42.054Z,0.80
2018-12-15T19:12:09.552Z,0.70
2018-12-15T19:14:37.029Z,0.70
2018-12-15T19:17:04.510Z,0.70
2018-12-15T19:19:31.995Z,0.70
2018-12-15T19:21:59.514Z,0.70
2018-12-15T19:24:26.971Z,0.70
2018-12-15T19:26:54.474Z,0.70
2018-12-15T19:29:21.958Z,0.70
2018-12-15T19:31:49.442Z,0.70
2018-12-15T19:34:17.693Z,0.70
2018-12-15T19:36:45.430Z,0.70
2018-12-15T19:39:12.949Z,0.70
2018-12-15T19:41:40.403Z,0.70
2018-12-15T19:44:07.881Z,0.70
2018-12-15T19:46:35.375Z,0.60
2018-12-15T19:49:02.825Z,0.60
2018-12-15T19:51:30.469Z,0.60
2018-12-15T19:53:58.150Z,0.60
2018-12-15T19:56:25.651Z,0.60
2018-12-15T19:58:53.097Z,0.50
2018-12-15T20:01:20.602Z,0.50
2018-12-15T20:03:48.075Z,0.50
2018-12-15T20:08:43.643Z,0.50
2018-12-15T20:11:11.138Z,0.50
2018-12-15T20:13:38.620Z,0.50
2018-12-15T20:16:06.067Z,0.50
2018-12-15T20:18:33.551Z,0.50
2018-12-15T20:21:01.038Z,0.50
2018-12-15T20:23:28.503Z,0.50
2018-12-15T20:25:55.997Z,0.50
2018-12-15T20:28:23.473Z,0.50
2018-12-15T20:30:51.691Z,0.50
2018-12-15T20:33:19.443Z,0.40
2018-12-15T20:35:47.201Z,0.40
2018-12-15T20:38:14.658Z,0.50
2018-12-15T20:40:42.173Z,0.40
2018-12-15T20:43:09.666Z,0.40
2018-12-15T20:45:37.158Z,0.50
2018-12-15T20:48:04.659Z,0.50
2018-12-15T20:50:32.144Z,0.50
2018-12-15T20:52:59.614Z,0.50
2018-12-15T20:55:27.088Z,0.50
2018-12-15T20:57:54.609Z,0.50
2018-12-15T21:00:22.086Z,0.40
2018-12-15T21:02:49.550Z,0.50
2018-12-15T21:05:17.033Z,0.50
2018-12-15T21:07:44.503Z,0.50
2018-12-15T21:10:12.927Z,0.50
2018-12-15T21:12:40.495Z,0.50
2018-12-15T21:15:09.978Z,0.50
2018-12-15T21:17:37.428Z,0.50
2018-12-15T21:20:07.892Z,0.50
2018-12-15T21:22:35.397Z,0.50
2018-12-15T21:25:03.043Z,0.50
2018-12-15T21:27:30.501Z,0.50
2018-12-15T21:29:57.970Z,0.50
2018-12-15T21:32:25.451Z,0.50
2018-12-15T21:34:52.891Z,0.60
2018-12-15T21:37:20.357Z,0.60
2018-12-15T21:39:47.857Z,0.60
2018-12-15T21:42:15.367Z,0.60
2018-12-15T21:44:42.864Z,0.60
2018-12-15T21:47:10.347Z,0.70
2018-12-15T21:49:37.807Z,0.70
2018-12-15T21:52:05.287Z,0.70
2018-12-15T21:54:32.840Z,0.70
2018-12-15T21:57:00.468Z,0.80
2018-12-15T21:59:27.942Z,0.80
2018-12-15T22:01:55.427Z,0.80
2018-12-15T22:04:22.934Z,0.80
2018-12-15T22:06:50.475Z,0.80
2018-12-15T22:09:18.006Z,0.80
2018-12-15T22:11:45.492Z,0.80
2018-12-15T22:14:12.962Z,0.80
2018-12-15T22:16:40.415Z,0.80
2018-12-15T22:19:07.975Z,0.80
2018-12-15T22:21:35.506Z,0.80
2018-12-15T22:24:03.034Z,0.80
2018-12-15T22:26:30.513Z,0.80
2018-12-15T22:28:58.083Z,0.80
2018-12-15T22:31:25.550Z,0.80
2018-12-15T22:33:53.062Z,0.90
2018-12-15T22:36:20.527Z,0.80
2018-12-15T22:38:47.979Z,0.90
2018-12-15T22:41:15.478Z,0.90
2018-12-15T22:43:43.002Z,0.90
2018-12-15T22:46:10.484Z,0.90
2018-12-15T22:48:37.931Z,0.90
2018-12-15T22:51:05.403Z,1.00
2018-12-15T22:53:32.862Z,1.00
2018-12-15T22:56:00.374Z,1.00
2018-12-15T22:58:27.863Z,1.00
2018-12-15T23:01:01.370Z,1.00
2018-12-15T23:03:28.847Z,1.00
2018-12-15T23:05:56.320Z,1.00
2018-12-15T23:08:23.759Z,1.00
2018-12-15T23:10:51.277Z,1.00
2018-12-15T23:13:18.726Z,1.00
2018-12-15T23:15:46.210Z,1.00
2018-12-15T23:18:13.647Z,1.00
2018-12-15T23:20:41.183Z,1.00
2018-12-15T23:23:08.666Z,1.00
2018-12-15T23:25:36.188Z,1.00
2018-12-15T23:28:03.752Z,1.10
2018-12-15T23:30:31.348Z,1.10
2018-12-15T23:32:58.822Z,1.10
2018-12-15T23:35:26.314Z,1.10
2018-12-15T23:37:53.815Z,1.10
2018-12-15T23:40:21.270Z,1.10
2018-12-15T23:42:48.785Z,1.10
2018-12-15T23:45:16.235Z,1.10
2018-12-15T23:47:43.710Z,1.10
2018-12-15T23:50:11.168Z,1.10
2018-12-15T23:52:38.734Z,1.10
2018-12-15T23:55:06.299Z,1.10
2018-12-15T23:57:33.755Z,1.10
